Time;durP1;ratioP1;P1;durP2;ratioP2;P2;SDS_P1;SDS_P2;PMS_P1;PMS_P2;Temp;Humidity;BMP_temperature;BMP_pressure;BME280_temperature;BME280_humidity;BME280_pressure;Samples;Min_cycle;Max_cycle;Signal;HPM_P1;HPM_P2
2023/04/17 00:02:38;;;;;;;2.20;1.30;;;;;;;;;;10404782;28;20389;-58
2023/04/17 00:07:40;;;;;;;3.97;1.60;;;;;;;;;;10392632;28;20370;-59
2023/04/17 00:12:40;;;;;;;2.55;1.52;;;;;;;;;;10398490;28;20029;-59
2023/04/17 00:17:41;;;;;;;3.03;1.60;;;;;;;;;;10411761;28;20040;-59
2023/04/17 00:22:41;;;;;;;2.95;1.60;;;;;;;;;;10411760;28;20021;-59
2023/04/17 00:27:42;;;;;;;2.40;1.60;;;;;;;;;;10411231;28;20508;-59
2023/04/17 00:32:42;;;;;;;3.90;1.83;;;;;;;;;;10411810;28;20497;-59
2023/04/17 00:37:43;;;;;;;3.17;1.90;;;;;;;;;;10411808;28;20029;-59
2023/04/17 00:42:51;;;;;;;3.90;1.52;;;;;;;;;;10412315;28;20045;-59
2023/04/17 00:47:52;;;;;;;2.72;1.50;;;;;;;;;;10393649;28;20029;-60
2023/04/17 00:52:54;;;;;;;3.10;1.65;;;;;;;;;;10392900;28;20504;-59
2023/04/17 00:57:55;;;;;;;2.45;1.50;;;;;;;;;;10391666;28;20060;-59
2023/04/17 01:02:57;;;;;;;3.65;1.58;;;;;;;;;;10408220;28;20029;-59
2023/04/17 01:07:57;;;;;;;2.45;1.50;;;;;;;;;;10409313;28;20034;-59
2023/04/17 01:13:03;;;;;;;2.25;1.40;;;;;;;;;;10399679;28;20023;-59
2023/04/17 01:18:05;;;;;;;1.60;1.30;;;;;;;;;;10409237;28;20029;-59
2023/04/17 01:23:05;;;;;;;2.75;1.60;;;;;;;;;;10408412;28;20030;-59
2023/04/17 01:28:06;;;;;;;2.15;1.48;;;;;;;;;;10408794;28;20037;-59
2023/04/17 01:33:07;;;;;;;1.80;1.60;;;;;;;;;;10408438;28;20541;-58
2023/04/17 01:38:07;;;;;;;1.98;1.50;;;;;;;;;;10409671;28;20040;-58
2023/04/17 01:43:08;;;;;;;2.40;1.42;;;;;;;;;;10389770;28;20025;-59
2023/04/17 01:48:08;;;;;;;1.85;1.30;;;;;;;;;;10407843;28;20036;-59
2023/04/17 01:53:09;;;;;;;2.25;1.60;;;;;;;;;;10408340;28;20046;-57
2023/04/17 01:58:10;;;;;;;1.73;1.60;;;;;;;;;;10407527;28;20022;-59
2023/04/17 02:03:10;;;;;;;2.25;1.65;;;;;;;;;;10407134;28;20075;-58
2023/04/17 02:08:11;;;;;;;2.13;1.52;;;;;;;;;;10407664;28;20025;-59
2023/04/17 02:13:12;;;;;;;1.58;1.40;;;;;;;;;;10408036;28;20028;-59
2023/04/17 02:18:13;;;;;;;2.25;1.58;;;;;;;;;;10407495;28;20375;-58
2023/04/17 02:23:13;;;;;;;3.08;1.48;;;;;;;;;;10406419;28;20087;-59
2023/04/17 02:28:14;;;;;;;1.67;1.35;;;;;;;;;;10407578;28;20021;-59
2023/04/17 02:33:15;;;;;;;2.53;1.50;;;;;;;;;;10407907;28;20080;-59
2023/04/17 02:38:15;;;;;;;2.08;1.55;;;;;;;;;;10405498;28;20461;-59
2023/04/17 02:43:16;;;;;;;2.63;1.50;;;;;;;;;;10403500;28;20025;-59
2023/04/17 02:48:17;;;;;;;2.78;1.50;;;;;;;;;;10407281;28;20049;-59
2023/04/17 02:53:18;;;;;;;2.95;1.50;;;;;;;;;;10407232;28;20179;-59
2023/04/17 02:58:18;;;;;;;1.50;1.40;;;;;;;;;;10402793;28;20091;-59
2023/04/17 03:03:19;;;;;;;2.28;1.67;;;;;;;;;;10396289;28;20033;-59
2023/04/17 03:08:19;;;;;;;1.40;1.30;;;;;;;;;;10404031;28;20045;-60
2023/04/17 03:13:20;;;;;;;1.75;1.45;;;;;;;;;;10404956;28;20541;-59
2023/04/17 03:18:21;;;;;;;4.10;1.50;;;;;;;;;;10404689;28;20061;-59
2023/04/17 03:23:22;;;;;;;2.53;1.65;;;;;;;;;;10404374;28;20124;-59
2023/04/17 03:28:22;;;;;;;1.40;1.30;;;;;;;;;;10405291;28;20056;-60
2023/04/17 03:33:23;;;;;;;3.72;1.63;;;;;;;;;;10404966;28;20036;-59
2023/04/17 03:38:23;;;;;;;2.00;1.40;;;;;;;;;;10405465;28;20496;-59
2023/04/17 03:43:24;;;;;;;1.55;1.13;;;;;;;;;;10403943;28;20113;-59
2023/04/17 03:48:25;;;;;;;1.50;1.40;;;;;;;;;;10405323;28;20033;-59
2023/04/17 03:53:25;;;;;;;2.22;1.50;;;;;;;;;;10405203;28;20045;-58
2023/04/17 03:58:26;;;;;;;1.65;1.20;;;;;;;;;;10402123;28;20037;-58
2023/04/17 04:03:27;;;;;;;1.30;1.20;;;;;;;;;;10402389;28;20099;-59
2023/04/17 04:08:28;;;;;;;1.27;1.17;;;;;;;;;;10402699;28;20381;-58
2023/04/17 04:13:28;;;;;;;2.00;1.48;;;;;;;;;;10404385;28;20029;-58
2023/04/17 04:18:29;;;;;;;3.30;1.40;;;;;;;;;;10401450;28;20257;-59
2023/04/17 04:23:30;;;;;;;2.05;1.45;;;;;;;;;;10393419;28;20037;-58
2023/04/17 04:28:30;;;;;;;3.05;1.35;;;;;;;;;;10403677;28;20029;-58
2023/04/17 04:33:31;;;;;;;1.90;1.30;;;;;;;;;;10401731;28;20045;-59
2023/04/17 04:38:32;;;;;;;1.42;1.20;;;;;;;;;;10402941;28;20021;-59
2023/04/17 04:43:33;;;;;;;2.95;1.30;;;;;;;;;;10404688;28;20381;-58
2023/04/17 04:48:33;;;;;;;5.70;1.80;;;;;;;;;;10384325;28;20025;-58
2023/04/17 04:53:34;;;;;;;2.95;1.40;;;;;;;;;;10399413;28;20042;-58
2023/04/17 04:58:37;;;;;;;2.75;1.70;;;;;;;;;;10405871;28;20041;-58
2023/04/17 05:03:37;;;;;;;8.25;2.58;;;;;;;;;;10410908;28;20107;-61
2023/04/17 05:08:41;;;;;;;5.32;1.70;;;;;;;;;;10405824;28;20033;-59
2023/04/17 05:13:42;;;;;;;5.50;2.05;;;;;;;;;;10409280;28;20036;-61
2023/04/17 05:18:44;;;;;;;6.43;1.83;;;;;;;;;;10409724;28;20025;-60
2023/04/17 05:23:45;;;;;;;6.93;1.98;;;;;;;;;;10410136;28;20057;-60
2023/04/17 05:28:45;;;;;;;4.60;2.28;;;;;;;;;;10408602;28;20042;-61
2023/04/17 05:33:46;;;;;;;2.42;1.80;;;;;;;;;;10410270;28;20021;-60
2023/04/17 05:38:47;;;;;;;3.42;2.08;;;;;;;;;;10408135;28;20033;-61
2023/04/17 05:43:48;;;;;;;12.55;2.00;;;;;;;;;;10410053;28;20053;-60
2023/04/17 05:48:48;;;;;;;3.97;1.60;;;;;;;;;;10397021;28;20132;-57
2023/04/17 05:53:49;;;;;;;3.45;1.83;;;;;;;;;;10407720;28;20056;-61
2023/04/17 05:58:50;;;;;;;4.97;1.85;;;;;;;;;;10408122;28;20030;-61
2023/04/17 06:03:50;;;;;;;11.73;1.98;;;;;;;;;;10407729;28;20026;-60
2023/04/17 06:08:53;;;;;;;5.03;2.08;;;;;;;;;;10395639;28;20057;-62
2023/04/17 06:13:53;;;;;;;6.13;2.15;;;;;;;;;;10405418;28;20443;-62
2023/04/17 06:18:54;;;;;;;9.65;2.55;;;;;;;;;;10407527;28;20083;-60
2023/04/17 06:23:55;;;;;;;6.97;2.03;;;;;;;;;;10405157;28;20017;-58
2023/04/17 06:28:55;;;;;;;12.55;2.60;;;;;;;;;;10406329;28;20496;-62
2023/04/17 06:33:56;;;;;;;13.45;2.38;;;;;;;;;;10407188;28;20025;-61
2023/04/17 06:38:57;;;;;;;11.88;3.05;;;;;;;;;;10407856;28;20041;-60
2023/04/17 06:43:57;;;;;;;13.30;3.15;;;;;;;;;;10400868;28;20048;-62
2023/04/17 06:48:58;;;;;;;8.27;2.15;;;;;;;;;;10388241;28;20388;-57
2023/04/17 06:53:59;;;;;;;8.95;2.53;;;;;;;;;;10405469;28;20369;-60
2023/04/17 06:58:59;;;;;;;3.72;2.05;;;;;;;;;;10403518;28;20095;-63
2023/04/17 07:04:00;;;;;;;4.53;2.55;;;;;;;;;;10405107;28;20018;-63
2023/04/17 07:09:01;;;;;;;4.40;1.70;;;;;;;;;;10403130;28;20385;-62
2023/04/17 07:14:02;;;;;;;9.45;1.95;;;;;;;;;;10404755;28;20021;-61
2023/04/17 07:19:02;;;;;;;5.28;1.95;;;;;;;;;;10405231;28;20165;-62
2023/04/17 07:24:03;;;;;;;5.20;2.35;;;;;;;;;;10402674;28;20048;-62
2023/04/17 07:29:04;;;;;;;4.47;2.28;;;;;;;;;;10404488;28;20033;-63
2023/04/17 07:34:04;;;;;;;3.97;1.90;;;;;;;;;;10401230;28;20017;-61
2023/04/17 07:39:06;;;;;;;3.88;2.17;;;;;;;;;;10403632;28;20036;-62
2023/04/17 07:44:07;;;;;;;5.90;2.33;;;;;;;;;;10400468;28;20299;-62
2023/04/17 07:49:08;;;;;;;6.38;2.00;;;;;;;;;;10403438;28;20297;-62
2023/04/17 07:54:08;;;;;;;3.63;1.90;;;;;;;;;;10404895;28;20037;-62
2023/04/17 07:59:09;;;;;;;2.22;1.83;;;;;;;;;;10402147;28;20033;-62
2023/04/17 08:04:09;;;;;;;8.45;2.47;;;;;;;;;;10404709;28;20035;-61
2023/04/17 08:09:10;;;;;;;6.75;1.95;;;;;;;;;;10403161;28;20021;-63
2023/04/17 08:14:11;;;;;;;4.55;1.67;;;;;;;;;;10401703;28;20040;-62
2023/04/17 08:19:12;;;;;;;2.83;1.85;;;;;;;;;;10401470;28;20071;-62
2023/04/17 08:24:13;;;;;;;3.60;1.58;;;;;;;;;;10402327;28;20429;-60
2023/04/17 08:29:14;;;;;;;6.68;2.20;;;;;;;;;;10404429;28;20033;-62
2023/04/17 08:34:15;;;;;;;3.88;1.88;;;;;;;;;;10405359;28;20029;-61
2023/04/17 08:39:15;;;;;;;1.92;1.50;;;;;;;;;;10411689;28;20036;-61
2023/04/17 08:44:20;;;;;;;4.13;1.83;;;;;;;;;;10410700;28;20439;-62
2023/04/17 08:49:21;;;;;;;3.33;1.65;;;;;;;;;;10412097;28;20036;-62
2023/04/17 08:54:21;;;;;;;2.97;1.80;;;;;;;;;;10408245;28;20045;-61
2023/04/17 08:59:22;;;;;;;2.03;1.58;;;;;;;;;;10410564;28;20045;-60
2023/04/17 09:04:45;;;;;;;6.72;1.67;;;;;;;;;;10409039;28;20033;-61
2023/04/17 09:09:55;;;;;;;2.72;1.85;;;;;;;;;;10398473;28;20034;-62
2023/04/17 09:14:55;;;;;;;3.47;1.70;;;;;;;;;;10410336;28;20021;-61
2023/04/17 09:20:10;;;;;;;4.85;1.67;;;;;;;;;;10410078;28;20028;-62
2023/04/17 09:25:19;;;;;;;4.05;1.80;;;;;;;;;;10379407;28;20570;-57
2023/04/17 09:30:19;;;;;;;2.30;1.45;;;;;;;;;;10401245;28;20588;-61
2023/04/17 09:35:24;;;;;;;2.60;1.85;;;;;;;;;;10408132;28;20040;-61
2023/04/17 09:40:34;;;;;;;4.15;1.95;;;;;;;;;;10407148;28;20033;-58
2023/04/17 09:45:40;;;;;;;1.95;1.70;;;;;;;;;;10408391;28;20029;-62
2023/04/17 09:50:40;;;;;;;2.30;1.70;;;;;;;;;;10408046;28;20041;-60
2023/04/17 09:55:42;;;;;;;2.20;1.95;;;;;;;;;;10407881;28;20049;-61
2023/04/17 10:00:43;;;;;;;2.13;1.80;;;;;;;;;;10408388;28;20067;-58
2023/04/17 10:05:44;;;;;;;2.50;1.60;;;;;;;;;;10390720;28;20451;-61
2023/04/17 10:10:45;;;;;;;5.38;1.83;;;;;;;;;;10406248;28;20064;-60
2023/04/17 10:15:46;;;;;;;2.97;1.65;;;;;;;;;;10401559;28;20431;-64
2023/04/17 10:20:49;;;;;;;2.05;1.60;;;;;;;;;;10367719;28;20029;-62
2023/04/17 10:26:24;;;;;;;2.63;1.50;;;;;;;;;;10391026;28;20027;-62
2023/04/17 10:32:09;;;;;;;1.88;1.33;;;;;;;;;;10399523;28;20034;-59
2023/04/17 10:37:14;;;;;;;1.50;1.40;;;;;;;;;;10407403;28;20033;-62
2023/04/17 10:42:19;;;;;;;1.60;1.50;;;;;;;;;;10407274;28;20084;-62
2023/04/17 10:47:21;;;;;;;1.70;1.60;;;;;;;;;;10405722;28;20037;-61
2023/04/17 10:52:43;;;;;;;3.63;1.65;;;;;;;;;;10403965;28;20096;-61
2023/04/17 10:57:54;;;;;;;7.30;1.63;;;;;;;;;;10379582;28;20030;-62
2023/04/17 11:02:55;;;;;;;2.15;1.65;;;;;;;;;;10406072;28;20032;-62
2023/04/17 11:07:57;;;;;;;2.28;1.67;;;;;;;;;;10406501;28;20514;-62
2023/04/17 11:12:58;;;;;;;2.45;1.60;;;;;;;;;;10404202;28;20030;-61
2023/04/17 11:18:00;;;;;;;1.50;1.40;;;;;;;;;;10403942;28;20527;-60
2023/04/17 11:23:03;;;;;;;4.53;1.42;;;;;;;;;;10402019;28;20029;-62
2023/04/17 11:28:06;;;;;;;2.85;1.50;;;;;;;;;;10403885;28;20037;-57
2023/04/17 11:33:07;;;;;;;2.10;1.48;;;;;;;;;;10404818;28;20025;-62
2023/04/17 11:38:21;;;;;;;1.30;1.20;;;;;;;;;;10404736;28;20033;-59
2023/04/17 11:43:23;;;;;;;4.75;1.60;;;;;;;;;;10398646;28;20033;-58
2023/04/17 11:48:26;;;;;;;1.58;1.42;;;;;;;;;;10406069;28;20076;-56
2023/04/17 11:53:27;;;;;;;4.07;1.40;;;;;;;;;;10400928;28;20452;-62
2023/04/17 11:58:27;;;;;;;1.92;1.52;;;;;;;;;;10403212;28;20129;-58
2023/04/17 12:03:34;;;;;;;3.95;1.50;;;;;;;;;;10399198;28;20060;-61
2023/04/17 12:08:42;;;;;;;1.40;1.30;;;;;;;;;;10392367;28;20612;-62
2023/04/17 12:13:43;;;;;;;2.55;1.65;;;;;;;;;;10411896;28;20037;-63
2023/04/17 12:18:45;;;;;;;1.45;1.33;;;;;;;;;;10411037;28;20033;-62
2023/04/17 12:23:46;;;;;;;4.43;1.55;;;;;;;;;;10413208;28;20041;-59
2023/04/17 12:28:46;;;;;;;1.80;1.58;;;;;;;;;;10407766;28;20501;-61
2023/04/17 12:33:47;;;;;;;1.50;1.40;;;;;;;;;;10383153;28;20041;-62
2023/04/17 12:38:48;;;;;;;2.47;1.92;;;;;;;;;;10407838;28;20040;-58
2023/04/17 12:43:48;;;;;;;2.65;1.50;;;;;;;;;;10412162;28;20029;-62
2023/04/17 12:48:54;;;;;;;2.13;1.33;;;;;;;;;;10387542;28;20044;-62
2023/04/17 12:53:55;;;;;;;9.88;1.45;;;;;;;;;;10406104;28;20132;-61
2023/04/17 12:58:56;;;;;;;2.67;1.52;;;;;;;;;;10409775;28;20044;-61
2023/04/17 13:03:56;;;;;;;2.05;1.50;;;;;;;;;;10409311;28;20493;-62
2023/04/17 13:08:57;;;;;;;4.60;1.67;;;;;;;;;;10400097;28;20062;-62
2023/04/17 13:13:58;;;;;;;1.60;1.27;;;;;;;;;;10405733;28;20441;-61
2023/04/17 13:18:58;;;;;;;4.53;1.67;;;;;;;;;;10410167;28;20029;-58
2023/04/17 13:23:59;;;;;;;1.55;1.40;;;;;;;;;;10409413;28;20073;-57
2023/04/17 13:29:00;;;;;;;1.48;1.38;;;;;;;;;;10401111;28;20359;-62
2023/04/17 13:34:01;;;;;;;1.10;1.05;;;;;;;;;;10405469;28;20063;-59
2023/04/17 13:39:01;;;;;;;1.45;1.35;;;;;;;;;;10406878;28;20100;-62
2023/04/17 13:44:02;;;;;;;1.95;1.45;;;;;;;;;;10408993;28;20021;-62
2023/04/17 13:49:02;;;;;;;6.18;1.80;;;;;;;;;;10406803;28;20504;-62
2023/04/17 13:54:03;;;;;;;2.03;1.30;;;;;;;;;;10408865;28;20389;-58
2023/04/17 13:59:04;;;;;;;1.67;1.50;;;;;;;;;;10408277;28;20023;-62
2023/04/17 14:04:05;;;;;;;1.30;1.20;;;;;;;;;;10398794;28;20028;-63
2023/04/17 14:09:06;;;;;;;1.55;1.40;;;;;;;;;;10408297;28;20449;-62
2023/04/17 14:14:06;;;;;;;2.20;1.20;;;;;;;;;;10408333;28;20021;-62
2023/04/17 14:19:08;;;;;;;1.50;1.40;;;;;;;;;;10408975;28;20030;-62
2023/04/17 14:24:09;;;;;;;2.72;1.48;;;;;;;;;;10405440;28;20037;-62
2023/04/17 14:29:12;;;;;;;1.30;1.20;;;;;;;;;;10407137;28;20059;-62
2023/04/17 14:34:12;;;;;;;1.65;1.38;;;;;;;;;;10406657;28;20029;-62
2023/04/17 14:39:13;;;;;;;1.25;1.15;;;;;;;;;;10406997;28;20378;-62
2023/04/17 14:44:13;;;;;;;1.33;1.23;;;;;;;;;;10405386;28;20124;-61
2023/04/17 14:49:14;;;;;;;1.45;1.20;;;;;;;;;;10406374;28;20037;-62
2023/04/17 14:54:15;;;;;;;1.40;1.30;;;;;;;;;;10424110;23;20049;-59
2023/04/17 14:59:15;;;;;;;1.23;1.10;;;;;;;;;;10361981;28;20038;-59
2023/04/17 15:04:26;;;;;;;1.90;1.52;;;;;;;;;;10501430;27;20621;-68
2023/04/17 15:09:27;;;;;;;1.40;1.30;;;;;;;;;;10494648;28;20033;-60
2023/04/17 15:14:28;;;;;;;1.80;1.60;;;;;;;;;;10481758;28;20384;-60
2023/04/17 15:19:29;;;;;;;1.98;1.73;;;;;;;;;;10484390;28;20032;-59
2023/04/17 15:24:30;;;;;;;2.88;1.50;;;;;;;;;;10485927;28;20055;-59
2023/04/17 15:29:31;;;;;;;1.95;1.30;;;;;;;;;;10457767;28;20025;-59
2023/04/17 15:34:34;;;;;;;2.50;1.23;;;;;;;;;;10485932;28;20032;-60
2023/04/17 15:39:36;;;;;;;1.33;1.23;;;;;;;;;;10496968;28;20031;-59
2023/04/17 15:44:36;;;;;;;1.60;1.50;;;;;;;;;;10505469;28;20035;-60
2023/04/17 15:49:37;;;;;;;1.40;1.30;;;;;;;;;;10504799;28;20040;-59
2023/04/17 15:54:38;;;;;;;2.22;1.30;;;;;;;;;;10495330;28;20029;-59
2023/04/17 15:59:38;;;;;;;1.40;1.13;;;;;;;;;;10485135;28;20074;-59
2023/04/17 16:04:41;;;;;;;1.50;1.30;;;;;;;;;;10488712;28;20020;-59
2023/04/17 16:09:43;;;;;;;1.50;1.35;;;;;;;;;;10479395;28;20064;-59
2023/04/17 16:14:44;;;;;;;2.10;1.50;;;;;;;;;;10477756;28;20505;-59
2023/04/17 16:19:44;;;;;;;1.58;1.45;;;;;;;;;;10461680;28;20037;-59
2023/04/17 16:24:45;;;;;;;2.25;1.27;;;;;;;;;;10461984;28;20476;-61
2023/04/17 16:29:46;;;;;;;1.65;1.40;;;;;;;;;;10445924;28;20439;-55
2023/04/17 16:34:46;;;;;;;15.88;1.60;;;;;;;;;;10443689;28;20112;-58
2023/04/17 16:39:47;;;;;;;8.18;1.45;;;;;;;;;;10447595;28;20088;-59
2023/04/17 16:44:48;;;;;;;6.43;1.52;;;;;;;;;;10443233;28;20033;-58
2023/04/17 16:49:48;;;;;;;2.55;1.42;;;;;;;;;;10446347;28;20029;-58
2023/04/17 16:54:49;;;;;;;6.72;1.40;;;;;;;;;;10443453;28;20094;-58
2023/04/17 16:59:49;;;;;;;1.55;1.38;;;;;;;;;;10461064;28;20049;-58
2023/04/17 17:04:50;;;;;;;1.83;1.40;;;;;;;;;;10445406;28;20267;-72
2023/04/17 17:09:51;;;;;;;2.83;1.55;;;;;;;;;;10441336;28;20033;-58
2023/04/17 17:14:51;;;;;;;3.90;1.75;;;;;;;;;;10431293;28;20029;-58
2023/04/17 17:19:52;;;;;;;8.40;1.55;;;;;;;;;;10463618;28;20055;-59
2023/04/17 17:24:54;;;;;;;1.50;1.30;;;;;;;;;;10470926;28;20028;-59
2023/04/17 17:29:55;;;;;;;4.20;1.67;;;;;;;;;;10457989;28;20025;-63
2023/04/17 17:34:57;;;;;;;4.22;1.95;;;;;;;;;;10457285;28;20071;-59
2023/04/17 17:39:57;;;;;;;5.85;2.40;;;;;;;;;;10460663;28;20313;-59
2023/04/17 17:44:58;;;;;;;3.70;3.30;;;;;;;;;;10457043;28;20231;-59
2023/04/17 17:49:59;;;;;;;11.98;5.03;;;;;;;;;;10453388;28;20095;-58
2023/04/17 17:54:59;;;;;;;11.63;7.45;;;;;;;;;;10438298;28;20035;-59
2023/04/17 18:00:00;;;;;;;10.90;6.38;;;;;;;;;;10426831;28;20632;-58
2023/04/17 18:05:00;;;;;;;10.70;7.40;;;;;;;;;;10466915;28;20039;-58
2023/04/17 18:10:01;;;;;;;10.90;7.57;;;;;;;;;;10439617;28;20041;-62
2023/04/17 18:15:02;;;;;;;12.50;8.43;;;;;;;;;;10451633;28;20392;-58
2023/04/17 18:20:02;;;;;;;12.80;8.40;;;;;;;;;;10438799;28;20137;-58
2023/04/17 18:25:08;;;;;;;11.40;8.90;;;;;;;;;;10450691;28;20068;-58
2023/04/17 18:30:09;;;;;;;13.38;8.77;;;;;;;;;;10450618;28;20059;-58
2023/04/17 18:35:09;;;;;;;11.60;8.30;;;;;;;;;;10446185;28;20056;-58
2023/04/17 18:40:11;;;;;;;13.38;7.90;;;;;;;;;;10456074;28;20127;-58
2023/04/17 18:45:14;;;;;;;12.43;8.50;;;;;;;;;;10448615;28;20116;-59
2023/04/17 18:50:15;;;;;;;11.70;8.57;;;;;;;;;;10443892;28;20041;-58
2023/04/17 18:55:16;;;;;;;10.75;8.30;;;;;;;;;;10451666;28;20037;-58
2023/04/17 19:00:17;;;;;;;10.80;8.20;;;;;;;;;;10455429;28;20230;-58
2023/04/17 19:05:19;;;;;;;10.80;8.00;;;;;;;;;;10417763;28;20559;-58
2023/04/17 19:10:19;;;;;;;11.90;8.32;;;;;;;;;;10452386;28;20025;-58
2023/04/17 19:15:20;;;;;;;8.13;6.70;;;;;;;;;;10453096;28;20032;-58
2023/04/17 19:20:22;;;;;;;9.88;6.93;;;;;;;;;;10453479;28;20040;-58
2023/04/17 19:25:22;;;;;;;19.58;7.57;;;;;;;;;;10433442;28;20388;-59
2023/04/17 19:30:23;;;;;;;11.50;6.20;;;;;;;;;;10447364;28;20035;-58
2023/04/17 19:35:25;;;;;;;7.15;5.78;;;;;;;;;;10445394;28;20036;-58
2023/04/17 19:40:26;;;;;;;8.00;5.93;;;;;;;;;;10455884;28;20031;-58
2023/04/17 19:45:27;;;;;;;10.65;6.13;;;;;;;;;;10442710;28;20029;-58
2023/04/17 19:50:29;;;;;;;6.32;4.78;;;;;;;;;;10448724;28;20033;-58
2023/04/17 19:55:30;;;;;;;14.27;5.00;;;;;;;;;;10455690;28;20025;-58
2023/04/17 20:00:30;;;;;;;8.98;5.07;;;;;;;;;;10459589;28;20033;-58
2023/04/17 20:05:31;;;;;;;5.97;4.55;;;;;;;;;;10433622;28;20029;-58
2023/04/17 20:10:31;;;;;;;7.35;4.30;;;;;;;;;;10460268;28;20028;-70
2023/04/17 20:15:32;;;;;;;5.60;4.00;;;;;;;;;;10436034;28;20192;-59
2023/04/17 20:20:33;;;;;;;8.60;4.32;;;;;;;;;;10454691;28;20025;-60
2023/04/17 20:25:34;;;;;;;5.75;4.13;;;;;;;;;;10442450;28;20024;-58
2023/04/17 20:30:34;;;;;;;6.15;3.90;;;;;;;;;;10453634;28;20021;-58
2023/04/17 20:35:35;;;;;;;4.80;3.65;;;;;;;;;;10449238;28;20388;-58
2023/04/17 20:40:36;;;;;;;4.43;3.25;;;;;;;;;;10441815;28;20460;-58
2023/04/17 20:45:36;;;;;;;8.45;3.50;;;;;;;;;;10449773;28;20413;-59
2023/04/17 20:50:37;;;;;;;3.45;3.15;;;;;;;;;;10449776;28;20036;-59
2023/04/17 20:55:46;;;;;;;4.40;3.25;;;;;;;;;;10447636;28;20048;-59
2023/04/17 21:00:48;;;;;;;4.93;3.00;;;;;;;;;;10440017;28;20057;-58
2023/04/17 21:05:48;;;;;;;4.20;3.00;;;;;;;;;;10442522;28;20036;-58
2023/04/17 21:10:49;;;;;;;3.70;3.10;;;;;;;;;;10448523;28;20436;-59
2023/04/17 21:15:50;;;;;;;3.28;2.65;;;;;;;;;;10437898;28;20499;-68
2023/04/17 21:20:50;;;;;;;20.05;3.08;;;;;;;;;;10455271;28;20282;-70
2023/04/17 21:25:52;;;;;;;4.65;2.60;;;;;;;;;;10448102;28;20120;-71
2023/04/17 21:30:53;;;;;;;9.80;3.80;;;;;;;;;;10456140;28;20052;-73
2023/04/17 21:35:54;;;;;;;3.50;2.75;;;;;;;;;;10441882;28;20064;-70
2023/04/17 21:40:55;;;;;;;4.70;2.72;;;;;;;;;;10455238;28;20144;-73
2023/04/17 21:45:56;;;;;;;8.63;2.92;;;;;;;;;;10450349;28;20040;-70
2023/04/17 21:51:03;;;;;;;5.18;2.50;;;;;;;;;;10444935;28;20368;-74
2023/04/17 21:56:04;;;;;;;4.97;2.67;;;;;;;;;;10446114;28;20040;-73
2023/04/17 22:01:05;;;;;;;4.05;2.78;;;;;;;;;;10455015;28;20392;-55
2023/04/17 22:06:06;;;;;;;6.20;2.42;;;;;;;;;;10458223;28;20029;-57
2023/04/17 22:11:06;;;;;;;3.50;2.45;;;;;;;;;;10469071;28;20107;-57
2023/04/17 22:16:07;;;;;;;5.63;2.72;;;;;;;;;;10465667;28;20480;-55
2023/04/17 22:21:08;;;;;;;4.55;2.72;;;;;;;;;;10449474;28;20058;-57
2023/04/17 22:26:08;;;;;;;4.40;2.30;;;;;;;;;;10454378;28;20021;-57
2023/04/17 22:31:09;;;;;;;7.45;2.47;;;;;;;;;;10451646;28;20049;-57
2023/04/17 22:36:10;;;;;;;4.43;2.22;;;;;;;;;;10442886;28;20025;-58
2023/04/17 22:41:10;;;;;;;4.13;2.28;;;;;;;;;;10460290;28;20028;-58
2023/04/17 22:46:11;;;;;;;3.80;2.00;;;;;;;;;;10465765;28;20078;-58
2023/04/17 22:51:12;;;;;;;2.88;2.08;;;;;;;;;;10460413;28;20038;-58
2023/04/17 22:56:13;;;;;;;5.32;2.00;;;;;;;;;;10457619;28;20037;-57
2023/04/17 23:01:13;;;;;;;2.75;1.90;;;;;;;;;;10458715;28;20049;-71
2023/04/17 23:06:14;;;;;;;3.50;1.80;;;;;;;;;;10456118;28;20025;-71
2023/04/17 23:11:15;;;;;;;3.60;2.05;;;;;;;;;;10445701;28;20024;-71
2023/04/17 23:16:15;;;;;;;2.08;1.80;;;;;;;;;;10451912;28;20021;-70
2023/04/17 23:21:16;;;;;;;3.35;1.80;;;;;;;;;;10457134;28;20556;-73
2023/04/17 23:26:16;;;;;;;3.03;1.80;;;;;;;;;;10472474;28;20557;-73
2023/04/17 23:31:17;;;;;;;6.32;2.55;;;;;;;;;;10463556;28;20396;-69
2023/04/17 23:36:18;;;;;;;2.80;2.03;;;;;;;;;;10454167;28;20025;-72
2023/04/17 23:41:19;;;;;;;2.65;1.73;;;;;;;;;;10462508;28;20047;-69
2023/04/17 23:46:20;;;;;;;2.67;2.00;;;;;;;;;;10461912;28;20480;-73
2023/04/17 23:51:20;;;;;;;3.53;1.65;;;;;;;;;;10456819;28;20032;-70
2023/04/17 23:56:22;;;;;;;2.55;1.65;;;;;;;;;;10464942;28;20380;-59
